ロングイェールビーン の空港の天気 - METARとTAF

スヴァールバル空港 ( ENSB / LYR ) - スヴァールバル諸島・ヤンマイエン島 ロングイェールビーン
飛行場実況気象(Metar)
観測時間10/19 19:50 CEST (10/19 17:50 UTC)
風向・風速東南東 2m/s
視程10km以上
天気現象
少しの雲 雲底高度 60m
気温-6℃
湿度86%
気圧1011hPa
METARENSB 191750Z 11003KT 9999 FEW002 M06/M08 Q1011 RMK WIND 1400FT 17004KT
過去の天気等 Google飛行場航空写真 Wunderground天気予報

過去48時間のMETAR

飛行場予報(TAF)
発表時間: -
19日20時 CEST ~ 20日2時 CEST に 確率 30% で一時的に
視程800m
天気現象氷霧
全天を覆う雲 鉛直視程 60m
20日12時 CEST ~ 20日14時 CEST に徐々に
風向・風速東南東 8m/s
20日17時 CEST ~ 20日20時 CEST に一時的に
風向・風速東南東 13m/s 瞬間風速 21m/s
TAF ENSB 1918/2018 12005KT 9999 FEW002
PROB30 TEMPO 1918/1924 0800 FZFG VV002
BECMG 2010/2012 12015KT
TEMPO 2015/2018 12025G40KT